createdAt,value
2018-07-21T00:01:30.156Z,22.75
2018-07-21T00:03:59.218Z,22.62
2018-07-21T00:06:28.153Z,22.44
2018-07-21T00:08:56.964Z,22.38
2018-07-21T00:11:25.869Z,22.43
2018-07-21T00:13:54.730Z,22.44
2018-07-21T00:16:23.703Z,22.17
2018-07-21T00:18:52.763Z,22.16
2018-07-21T00:21:21.627Z,22.26
2018-07-21T00:23:50.915Z,22.29
2018-07-21T00:26:19.690Z,22.21
2018-07-21T00:28:48.580Z,22.18
2018-07-21T00:31:17.751Z,22.21
2018-07-21T00:33:46.835Z,22.27
2018-07-21T00:36:15.563Z,22.15
2018-07-21T00:38:44.289Z,22.16
2018-07-21T00:41:13.290Z,22.21
2018-07-21T00:43:42.165Z,22.20
2018-07-21T00:46:11.059Z,22.13
2018-07-21T00:48:40.135Z,22.05
2018-07-21T00:51:09.141Z,22.09
2018-07-21T00:53:37.910Z,22.16
2018-07-21T00:56:06.890Z,22.18
2018-07-21T00:58:35.825Z,22.23
2018-07-21T01:01:04.707Z,22.35
2018-07-21T01:03:33.632Z,22.34
2018-07-21T01:06:02.589Z,22.38
2018-07-21T01:08:31.368Z,22.25
2018-07-21T01:11:00.252Z,22.50
2018-07-21T01:13:29.305Z,22.50
2018-07-21T01:15:58.269Z,22.38
2018-07-21T01:18:27.021Z,22.30
2018-07-21T01:20:55.859Z,22.26
2018-07-21T01:23:24.713Z,22.33
2018-07-21T01:25:53.499Z,22.52
2018-07-21T01:28:22.387Z,22.39
2018-07-21T01:30:51.209Z,22.35
2018-07-21T01:33:20.083Z,22.36
2018-07-21T01:35:49.058Z,22.50
2018-07-21T01:38:17.839Z,22.67
2018-07-21T01:40:46.706Z,22.59
2018-07-21T01:43:15.531Z,22.56
2018-07-21T01:45:45.196Z,22.49
2018-07-21T01:48:14.072Z,22.48
2018-07-21T01:50:42.926Z,22.47
2018-07-21T01:53:11.880Z,22.54
2018-07-21T01:55:41.036Z,22.52
2018-07-21T01:58:09.949Z,22.65
2018-07-21T02:00:38.916Z,22.69
2018-07-21T02:03:07.806Z,22.58
2018-07-21T02:05:36.665Z,22.64
2018-07-21T02:08:05.739Z,22.53
2018-07-21T02:10:34.618Z,22.41
2018-07-21T02:13:03.458Z,22.31
2018-07-21T02:15:32.723Z,22.37
2018-07-21T02:18:01.800Z,22.44
2018-07-21T02:20:30.859Z,22.45
2018-07-21T02:22:59.972Z,22.41
2018-07-21T02:25:28.821Z,22.41
2018-07-21T02:27:57.652Z,22.47
2018-07-21T02:30:26.394Z,22.57
2018-07-21T02:32:55.600Z,22.59
2018-07-21T02:35:24.555Z,22.53
2018-07-21T02:37:53.433Z,22.52
2018-07-21T02:40:22.279Z,22.53
2018-07-21T02:42:51.247Z,22.65
2018-07-21T02:45:20.422Z,22.58
2018-07-21T02:47:49.283Z,22.55
2018-07-21T02:50:18.053Z,22.58
2018-07-21T02:52:46.809Z,22.56
2018-07-21T02:55:15.697Z,22.58
2018-07-21T02:57:44.571Z,22.53
2018-07-21T03:00:13.617Z,22.56
2018-07-21T03:02:42.607Z,22.57
2018-07-21T03:05:11.442Z,22.56
2018-07-21T03:07:40.524Z,22.57
2018-07-21T03:10:09.617Z,22.57
2018-07-21T03:12:38.588Z,22.57
2018-07-21T03:15:07.421Z,22.55
2018-07-21T03:17:36.248Z,22.53
2018-07-21T03:20:05.226Z,22.62
2018-07-21T03:22:34.146Z,22.57
2018-07-21T03:25:02.989Z,22.51
2018-07-21T03:27:31.725Z,22.50
2018-07-21T03:30:00.637Z,22.44
2018-07-21T03:32:29.555Z,22.44
2018-07-21T03:34:58.639Z,22.45
2018-07-21T03:37:27.385Z,22.41
2018-07-21T03:39:56.389Z,22.32
2018-07-21T03:42:25.251Z,22.26
2018-07-21T03:44:54.048Z,22.21
2018-07-21T03:47:22.864Z,22.22
2018-07-21T03:49:51.666Z,22.16
2018-07-21T03:52:20.978Z,22.09
2018-07-21T03:54:49.930Z,22.08
2018-07-21T03:57:18.808Z,22.12
2018-07-21T03:59:47.622Z,22.13
2018-07-21T04:02:16.642Z,22.13
2018-07-21T04:04:45.430Z,22.09
2018-07-21T04:07:14.517Z,22.08
2018-07-21T04:09:43.553Z,22.03
2018-07-21T04:12:12.403Z,22.04
2018-07-21T04:14:41.594Z,22.04
2018-07-21T04:17:16.558Z,21.99
2018-07-21T04:19:45.528Z,22.08
2018-07-21T04:22:15.210Z,21.98
2018-07-21T04:24:44.214Z,21.91
2018-07-21T04:27:13.437Z,21.86
2018-07-21T04:29:42.319Z,21.90
2018-07-21T04:32:11.231Z,21.89
2018-07-21T04:34:39.986Z,21.97
2018-07-21T04:37:09.099Z,21.96
2018-07-21T04:39:37.982Z,21.88
2018-07-21T04:42:07.397Z,21.79
2018-07-21T04:44:43.056Z,21.92
2018-07-21T04:47:12.138Z,21.92
2018-07-21T04:49:40.958Z,21.81
2018-07-21T04:52:09.957Z,21.91
2018-07-21T04:54:38.781Z,22.01
2018-07-21T04:57:07.793Z,21.98
2018-07-21T04:59:36.716Z,22.00
2018-07-21T05:02:05.796Z,21.86
2018-07-21T05:04:34.595Z,21.89
2018-07-21T05:07:03.442Z,22.08
2018-07-21T05:09:32.430Z,22.10
2018-07-21T05:12:01.240Z,22.13
2018-07-21T05:14:30.456Z,22.02
2018-07-21T05:16:59.383Z,21.85
2018-07-21T05:19:28.293Z,21.85
2018-07-21T05:21:57.321Z,21.91
2018-07-21T05:24:26.264Z,21.90
2018-07-21T05:26:55.209Z,21.97
2018-07-21T05:29:24.113Z,21.98
2018-07-21T05:31:52.920Z,21.82
2018-07-21T05:34:21.805Z,21.72
2018-07-21T05:36:50.601Z,21.83
2018-07-21T05:39:19.439Z,21.92
2018-07-21T05:41:48.244Z,22.05
2018-07-21T05:44:17.161Z,22.22
2018-07-21T05:46:45.994Z,22.40
2018-07-21T05:49:14.892Z,22.16
2018-07-21T05:51:43.839Z,22.31
2018-07-21T05:54:12.710Z,22.16
2018-07-21T05:56:41.662Z,22.17
2018-07-21T05:59:10.477Z,22.25
2018-07-21T06:01:39.396Z,22.25
2018-07-21T06:04:08.133Z,22.26
2018-07-21T06:06:36.953Z,22.12
2018-07-21T06:09:08.134Z,21.97
2018-07-21T06:11:37.173Z,22.07
2018-07-21T06:14:06.110Z,22.01
2018-07-21T06:16:34.972Z,21.99
2018-07-21T06:19:03.848Z,21.96
2018-07-21T06:21:32.696Z,21.92
2018-07-21T06:24:01.466Z,21.87
2018-07-21T06:26:30.735Z,21.85
2018-07-21T06:28:59.697Z,21.86
2018-07-21T06:31:28.521Z,21.91
2018-07-21T06:33:57.330Z,21.90
2018-07-21T06:36:26.116Z,21.90
2018-07-21T06:38:55.067Z,21.83
2018-07-21T06:41:24.245Z,21.95
2018-07-21T06:43:53.317Z,21.98
2018-07-21T06:46:22.364Z,21.99
2018-07-21T06:48:51.208Z,21.99
2018-07-21T06:51:20.030Z,21.92
2018-07-21T06:53:48.857Z,21.97
2018-07-21T06:56:17.777Z,22.00
2018-07-21T06:58:46.536Z,21.99
2018-07-21T07:01:15.439Z,22.04
2018-07-21T07:03:44.193Z,22.05
2018-07-21T07:06:13.123Z,21.76
2018-07-21T07:08:42.071Z,21.74
2018-07-21T07:11:11.331Z,21.72
2018-07-21T07:13:40.315Z,21.36
2018-07-21T07:16:09.246Z,21.41
2018-07-21T07:18:38.001Z,21.39
2018-07-21T07:21:06.807Z,21.22
2018-07-21T07:23:35.680Z,21.13
2018-07-21T07:26:04.615Z,21.30
2018-07-21T07:28:33.406Z,21.31
2018-07-21T07:31:02.342Z,21.44
2018-07-21T07:33:31.565Z,21.18
2018-07-21T07:36:00.784Z,21.24
2018-07-21T07:38:29.853Z,21.31
2018-07-21T07:40:59.015Z,21.34
2018-07-21T07:43:28.042Z,21.27
2018-07-21T07:45:56.818Z,21.35
2018-07-21T07:48:25.855Z,21.40
2018-07-21T07:50:54.858Z,21.54
2018-07-21T07:53:23.749Z,21.65
2018-07-21T07:55:52.819Z,21.70
2018-07-21T07:58:21.768Z,21.71
2018-07-21T08:00:50.796Z,21.68
2018-07-21T08:03:19.602Z,21.70
2018-07-21T08:05:48.782Z,21.74
2018-07-21T08:08:17.748Z,21.72
2018-07-21T08:10:46.710Z,21.74
2018-07-21T08:13:16.150Z,21.88
2018-07-21T08:15:44.946Z,21.85
2018-07-21T08:18:13.926Z,21.76
2018-07-21T08:20:42.952Z,21.23
2018-07-21T08:23:11.677Z,21.17
2018-07-21T08:25:40.561Z,20.86
2018-07-21T08:28:09.938Z,20.67
2018-07-21T08:30:38.971Z,20.60
2018-07-21T08:33:08.228Z,20.75
2018-07-21T08:35:37.285Z,20.64
2018-07-21T08:38:06.606Z,20.82
2018-07-21T08:40:35.689Z,20.35
2018-07-21T08:43:04.494Z,20.46
2018-07-21T08:45:33.390Z,20.40
2018-07-21T08:48:02.369Z,20.09
2018-07-21T08:50:31.225Z,20.22
2018-07-21T08:53:00.663Z,20.20
2018-07-21T08:55:29.440Z,19.96
2018-07-21T08:57:58.224Z,19.96
2018-07-21T09:00:27.301Z,19.84
2018-07-21T09:02:56.202Z,20.13
2018-07-21T09:05:25.333Z,19.97
2018-07-21T09:07:54.246Z,19.86
2018-07-21T09:10:23.166Z,19.96
2018-07-21T09:12:52.107Z,19.89
2018-07-21T09:15:21.485Z,19.78
2018-07-21T09:17:51.388Z,19.94
2018-07-21T09:20:20.468Z,20.07
2018-07-21T09:22:49.664Z,20.14
2018-07-21T09:25:18.697Z,20.12
2018-07-21T09:27:47.906Z,19.95
2018-07-21T09:30:16.829Z,20.03
2018-07-21T09:32:45.746Z,20.10
2018-07-21T09:35:14.669Z,20.15
2018-07-21T09:37:43.416Z,20.09
2018-07-21T09:40:12.551Z,20.17
2018-07-21T09:42:41.784Z,19.91
2018-07-21T09:45:12.665Z,19.81
2018-07-21T09:47:41.654Z,19.92
2018-07-21T09:50:11.210Z,19.69
2018-07-21T09:52:40.741Z,19.84
2018-07-21T09:55:10.211Z,19.95
2018-07-21T09:57:39.749Z,19.72
2018-07-21T10:00:10.453Z,19.69
2018-07-21T10:02:39.636Z,20.06
2018-07-21T10:05:08.543Z,20.03
2018-07-21T10:07:37.351Z,20.24
2018-07-21T10:10:06.478Z,20.19
2018-07-21T10:12:35.449Z,20.14
2018-07-21T10:15:04.512Z,20.01
2018-07-21T10:17:33.487Z,20.07
2018-07-21T10:20:02.485Z,20.21
2018-07-21T10:22:31.420Z,20.41
2018-07-21T10:25:05.279Z,20.52
2018-07-21T10:27:39.500Z,20.25
2018-07-21T10:30:08.815Z,20.34
2018-07-21T10:32:37.745Z,20.45
2018-07-21T10:35:06.520Z,20.53
2018-07-21T10:37:35.575Z,20.27
2018-07-21T10:40:04.728Z,20.43
2018-07-21T10:42:33.792Z,20.58
2018-07-21T10:45:02.649Z,20.71
2018-07-21T10:47:31.537Z,20.32
2018-07-21T10:50:00.493Z,20.20
2018-07-21T10:52:29.423Z,20.12
2018-07-21T10:54:58.268Z,19.93
2018-07-21T10:57:27.235Z,20.46
2018-07-21T10:59:57.502Z,20.48
2018-07-21T11:02:26.666Z,20.28
2018-07-21T11:04:55.961Z,20.62
2018-07-21T11:07:25.142Z,20.20
2018-07-21T11:09:54.174Z,20.39
2018-07-21T11:12:23.176Z,20.69
2018-07-21T11:14:53.239Z,20.67
2018-07-21T11:17:23.687Z,20.68
2018-07-21T11:19:52.994Z,20.79
2018-07-21T11:22:21.967Z,20.77
2018-07-21T11:24:50.766Z,20.75
2018-07-21T11:27:19.813Z,20.84
2018-07-21T11:29:50.326Z,20.78
2018-07-21T11:32:19.182Z,20.89
2018-07-21T11:34:48.669Z,20.87
2018-07-21T11:37:18.376Z,20.80
2018-07-21T11:39:48.722Z,20.78
2018-07-21T11:42:17.736Z,20.98
2018-07-21T11:44:46.810Z,20.95
2018-07-21T11:47:16.345Z,20.89
2018-07-21T11:49:46.027Z,20.83
2018-07-21T11:52:14.969Z,20.99
2018-07-21T11:54:44.069Z,20.97
2018-07-21T11:57:13.475Z,21.04
2018-07-21T11:59:43.405Z,21.09
2018-07-21T12:02:12.399Z,21.27
2018-07-21T12:04:41.297Z,21.00
2018-07-21T12:07:10.642Z,21.10
2018-07-21T12:09:39.488Z,21.18
2018-07-21T12:12:08.445Z,21.21
2018-07-21T12:14:37.644Z,21.20
2018-07-21T12:17:07.035Z,21.22
2018-07-21T12:19:36.201Z,21.41
2018-07-21T12:22:05.513Z,21.51
2018-07-21T12:24:34.890Z,21.64
2018-07-21T12:27:03.870Z,21.59
2018-07-21T12:29:32.886Z,21.59
2018-07-21T12:32:01.827Z,21.58
2018-07-21T12:34:30.791Z,21.49
2018-07-21T12:36:59.588Z,21.43
2018-07-21T12:39:28.559Z,21.19
2018-07-21T12:41:57.303Z,20.99
2018-07-21T12:44:26.268Z,21.07
2018-07-21T12:46:55.063Z,20.86
2018-07-21T12:49:24.232Z,21.02
2018-07-21T12:51:53.535Z,20.82
2018-07-21T12:54:22.567Z,20.62
2018-07-21T12:56:51.457Z,20.75
2018-07-21T12:59:20.739Z,20.77
2018-07-21T13:01:49.675Z,20.79
2018-07-21T13:04:19.527Z,21.06
2018-07-21T13:06:48.573Z,21.16
2018-07-21T13:09:17.444Z,21.44
2018-07-21T13:11:46.401Z,21.26
2018-07-21T13:14:15.497Z,21.09
2018-07-21T13:16:44.578Z,20.93
2018-07-21T13:19:13.637Z,20.80
2018-07-21T13:21:42.435Z,20.70
2018-07-21T13:24:11.434Z,20.89
2018-07-21T13:26:40.637Z,20.89
2018-07-21T13:29:09.668Z,20.74
2018-07-21T13:31:38.943Z,20.88
2018-07-21T13:34:08.078Z,20.86
2018-07-21T13:36:37.112Z,21.04
2018-07-21T13:39:09.019Z,21.21
2018-07-21T13:41:37.836Z,21.22
2018-07-21T13:44:06.961Z,20.83
2018-07-21T13:46:35.997Z,20.92
2018-07-21T13:49:04.975Z,21.14
2018-07-21T13:51:33.945Z,21.28
2018-07-21T13:54:02.873Z,21.27
2018-07-21T13:56:32.299Z,21.33
2018-07-21T13:59:01.733Z,21.49
2018-07-21T14:01:30.670Z,21.42
2018-07-21T14:03:59.557Z,21.51
2018-07-21T14:06:28.788Z,21.37
2018-07-21T14:08:57.898Z,21.33
2018-07-21T14:11:27.108Z,21.21
2018-07-21T14:13:56.207Z,21.17
2018-07-21T14:16:25.291Z,21.27
2018-07-21T14:18:54.218Z,21.42
2018-07-21T14:21:22.966Z,21.41
2018-07-21T14:23:51.973Z,21.48
2018-07-21T14:26:20.765Z,21.55
2018-07-21T14:28:49.713Z,21.59
2018-07-21T14:31:18.694Z,21.51
2018-07-21T14:33:47.529Z,21.69
2018-07-21T14:36:16.429Z,21.78
2018-07-21T14:38:45.146Z,21.83
2018-07-21T14:41:14.165Z,21.77
2018-07-21T14:43:43.122Z,21.88
2018-07-21T14:46:12.068Z,21.97
2018-07-21T14:48:41.110Z,22.02
2018-07-21T14:51:10.352Z,21.84
2018-07-21T14:53:39.309Z,21.73
2018-07-21T14:56:08.622Z,21.56
2018-07-21T14:58:37.549Z,21.60
2018-07-21T15:01:06.596Z,21.08
2018-07-21T15:03:35.690Z,21.06
2018-07-21T15:06:04.970Z,21.03
2018-07-21T15:08:33.776Z,21.05
2018-07-21T15:11:02.897Z,21.05
2018-07-21T15:13:31.716Z,21.04
2018-07-21T15:16:00.647Z,21.18
2018-07-21T15:18:29.543Z,21.08
2018-07-21T15:20:58.394Z,21.16
2018-07-21T15:23:27.154Z,21.10
2018-07-21T15:25:55.949Z,21.24
2018-07-21T15:28:24.918Z,21.35
2018-07-21T15:30:53.795Z,21.28
2018-07-21T15:33:22.973Z,21.62
2018-07-21T15:35:51.867Z,21.49
2018-07-21T15:38:20.919Z,21.43
2018-07-21T15:40:50.070Z,21.61
2018-07-21T15:43:19.235Z,21.78
2018-07-21T15:45:49.324Z,21.65
2018-07-21T15:48:18.391Z,21.74
2018-07-21T15:50:47.711Z,21.75
2018-07-21T15:53:16.947Z,21.63
2018-07-21T15:55:45.818Z,21.85
2018-07-21T15:58:14.685Z,22.25
2018-07-21T16:00:43.513Z,22.26
2018-07-21T16:03:12.478Z,22.28
2018-07-21T16:05:41.373Z,22.37
2018-07-21T16:08:10.110Z,22.14
2018-07-21T16:10:39.106Z,22.28
2018-07-21T16:13:07.968Z,22.50
2018-07-21T16:15:36.798Z,22.68
2018-07-21T16:18:05.803Z,22.77
2018-07-21T16:20:34.535Z,22.71
2018-07-21T16:23:04.236Z,22.83
2018-07-21T16:25:33.256Z,22.35
2018-07-21T16:28:02.320Z,22.37
2018-07-21T16:30:31.211Z,22.19
2018-07-21T16:32:59.958Z,22.34
2018-07-21T16:35:28.757Z,22.34
2018-07-21T16:37:57.723Z,22.33
2018-07-21T16:40:26.550Z,22.17
2018-07-21T16:42:55.464Z,22.12
2018-07-21T16:45:24.213Z,22.13
2018-07-21T16:47:53.104Z,21.95
2018-07-21T16:50:21.949Z,21.98
2018-07-21T16:52:51.072Z,21.70
2018-07-21T16:55:20.513Z,21.69
2018-07-21T16:57:49.722Z,21.66
2018-07-21T17:00:19.030Z,21.57
2018-07-21T17:02:48.025Z,21.43
2018-07-21T17:05:16.871Z,21.31
2018-07-21T17:07:46.053Z,21.33
2018-07-21T17:10:15.113Z,21.03
2018-07-21T17:12:43.981Z,21.00
2018-07-21T17:15:13.275Z,20.98
2018-07-21T17:17:42.281Z,20.97
2018-07-21T17:20:11.122Z,21.08
2018-07-21T17:22:40.249Z,21.08
2018-07-21T17:25:09.023Z,21.07
2018-07-21T17:27:38.273Z,21.13
2018-07-21T17:30:07.240Z,21.01
2018-07-21T17:32:36.342Z,21.16
2018-07-21T17:35:05.335Z,20.97
2018-07-21T17:37:34.154Z,20.88
2018-07-21T17:40:03.137Z,20.89
2018-07-21T17:42:32.093Z,20.95
2018-07-21T17:45:00.899Z,20.96
2018-07-21T17:47:30.015Z,20.92
2018-07-21T17:49:59.095Z,20.83
2018-07-21T17:52:28.287Z,20.76
2018-07-21T17:54:57.764Z,20.72
2018-07-21T17:57:26.685Z,20.94
2018-07-21T17:59:55.725Z,20.85
2018-07-21T18:02:24.818Z,20.84
2018-07-21T18:04:53.865Z,20.86
2018-07-21T18:07:22.808Z,20.81
2018-07-21T18:09:51.786Z,20.78
2018-07-21T18:12:20.584Z,20.84
2018-07-21T18:14:49.590Z,20.92
2018-07-21T18:17:18.594Z,20.77
2018-07-21T18:19:47.576Z,20.74
2018-07-21T18:22:16.667Z,20.61
2018-07-21T18:24:45.798Z,20.70
2018-07-21T18:27:14.827Z,20.71
2018-07-21T18:29:43.634Z,20.78
2018-07-21T18:32:12.523Z,20.81
2018-07-21T18:34:41.613Z,20.82
2018-07-21T18:37:10.760Z,20.83
2018-07-21T18:39:39.891Z,20.85
2018-07-21T18:42:08.700Z,20.78
2018-07-21T18:44:37.638Z,20.74
2018-07-21T18:47:05.939Z,20.69
2018-07-21T18:49:35.002Z,20.70
2018-07-21T18:52:04.055Z,20.64
2018-07-21T18:54:33.034Z,20.68
2018-07-21T18:57:01.849Z,20.71
2018-07-21T18:59:30.733Z,20.63
2018-07-21T19:01:59.498Z,20.65
2018-07-21T19:04:28.484Z,20.60
2018-07-21T19:06:57.407Z,20.60
2018-07-21T19:09:26.372Z,20.46
2018-07-21T19:12:00.293Z,20.50
2018-07-21T19:14:29.410Z,20.32
2018-07-21T19:16:58.295Z,20.31
2018-07-21T19:19:31.253Z,20.31
2018-07-21T19:22:00.476Z,20.35
2018-07-21T19:24:29.464Z,20.20
2018-07-21T19:27:03.437Z,20.23
2018-07-21T19:29:32.568Z,20.10
2018-07-21T19:32:06.671Z,20.00
2018-07-21T19:34:35.697Z,19.94
2018-07-21T19:37:08.676Z,19.79
2018-07-21T19:39:37.469Z,19.76
2018-07-21T19:42:06.505Z,19.71
2018-07-21T19:44:35.350Z,19.80
2018-07-21T19:47:04.246Z,19.80
2018-07-21T19:49:33.246Z,19.84
2018-07-21T19:52:02.502Z,19.92
2018-07-21T19:54:31.402Z,19.86
2018-07-21T19:57:00.343Z,19.97
2018-07-21T19:59:29.099Z,20.06
2018-07-21T20:01:57.916Z,20.04
2018-07-21T20:04:26.657Z,19.96
2018-07-21T20:06:55.440Z,20.10
2018-07-21T20:09:24.413Z,20.12
2018-07-21T20:11:53.317Z,20.12
2018-07-21T20:14:22.726Z,20.09
2018-07-21T20:16:51.550Z,20.09
2018-07-21T20:19:20.567Z,20.18
2018-07-21T20:21:49.447Z,20.30
2018-07-21T20:24:18.503Z,20.09
2018-07-21T20:26:47.407Z,20.13
2018-07-21T20:29:16.311Z,20.23
2018-07-21T20:31:45.710Z,20.22
2018-07-21T20:34:14.730Z,20.24
2018-07-21T20:36:43.592Z,20.15
2018-07-21T20:39:12.378Z,20.08
2018-07-21T20:41:41.347Z,20.08
2018-07-21T20:44:10.206Z,20.13
2018-07-21T20:46:39.182Z,20.14
2018-07-21T20:49:08.294Z,20.10
2018-07-21T20:51:37.709Z,20.11
2018-07-21T20:54:06.524Z,20.12
2018-07-21T20:56:35.467Z,20.13
2018-07-21T20:59:04.439Z,20.10
2018-07-21T21:01:33.563Z,20.13
2018-07-21T21:04:02.600Z,20.13
2018-07-21T21:06:31.395Z,20.09
2018-07-21T21:09:00.313Z,20.19
2018-07-21T21:11:29.289Z,20.22
2018-07-21T21:13:58.299Z,20.14
2018-07-21T21:16:27.174Z,19.98
2018-07-21T21:18:56.061Z,20.12
2018-07-21T21:21:25.050Z,20.12
2018-07-21T21:23:54.031Z,19.94
2018-07-21T21:26:22.856Z,20.03
2018-07-21T21:28:51.536Z,20.03
2018-07-21T21:31:20.588Z,19.71
2018-07-21T21:33:49.608Z,19.69
2018-07-21T21:36:18.570Z,19.78
2018-07-21T21:38:47.551Z,19.56
2018-07-21T21:41:16.548Z,19.43
2018-07-21T21:43:45.437Z,19.42
2018-07-21T21:46:14.607Z,19.46
2018-07-21T21:48:43.522Z,19.32
2018-07-21T21:51:12.486Z,19.28
2018-07-21T21:53:41.375Z,19.28
2018-07-21T21:56:10.389Z,19.11
2018-07-21T21:58:39.477Z,19.13
2018-07-21T22:01:12.948Z,19.19
2018-07-21T22:03:42.057Z,19.26
2018-07-21T22:06:11.006Z,19.22
2018-07-21T22:08:40.417Z,19.24
2018-07-21T22:11:09.229Z,19.25
2018-07-21T22:13:38.289Z,19.09
2018-07-21T22:16:07.443Z,19.03
2018-07-21T22:18:36.459Z,19.11
2018-07-21T22:21:05.432Z,19.04
2018-07-21T22:23:34.453Z,19.08
2018-07-21T22:26:03.262Z,19.06
2018-07-21T22:28:31.993Z,19.25
2018-07-21T22:31:00.881Z,19.25
2018-07-21T22:33:29.755Z,19.21
2018-07-21T22:35:58.634Z,19.15
2018-07-21T22:38:27.442Z,19.14
2018-07-21T22:40:56.283Z,19.23
2018-07-21T22:43:25.126Z,19.23
2018-07-21T22:45:53.818Z,19.25
2018-07-21T22:48:22.838Z,19.19
2018-07-21T22:50:51.842Z,19.16
2018-07-21T22:53:20.750Z,19.09
2018-07-21T22:55:49.569Z,19.13
2018-07-21T22:58:18.441Z,19.05
2018-07-21T23:00:47.389Z,19.09
2018-07-21T23:03:16.217Z,18.98
2018-07-21T23:05:44.978Z,19.01
2018-07-21T23:08:13.809Z,19.10
2018-07-21T23:10:42.642Z,19.25
2018-07-21T23:13:11.611Z,19.18
2018-07-21T23:15:40.399Z,19.07
2018-07-21T23:18:09.423Z,19.10
2018-07-21T23:20:39.177Z,19.08
2018-07-21T23:23:08.057Z,19.03
2018-07-21T23:25:36.963Z,19.08
2018-07-21T23:28:05.878Z,19.08
2018-07-21T23:30:34.849Z,19.18
2018-07-21T23:33:04.033Z,19.13
2018-07-21T23:35:32.992Z,19.11
2018-07-21T23:38:01.988Z,19.14
2018-07-21T23:40:31.065Z,19.15
2018-07-21T23:42:59.883Z,19.03
2018-07-21T23:45:28.683Z,19.18
2018-07-21T23:47:57.794Z,19.16
2018-07-21T23:50:26.625Z,19.02
2018-07-21T23:52:55.742Z,19.14
2018-07-21T23:55:24.580Z,19.12
2018-07-21T23:57:53.526Z,19.09
